Ackworth, IA

9:51 PM CDT on May 27, 2015 (GMT -0500)
Rural Pleasantville | | Change Station
CLOSE
Current Station
Personal Weather Station
Location: Pleasantville, IA
Elevation: 843 ft
Nearby Weather Stations

Elev 843 ft 41.36 °N, 93.27 °W | Updated 7 minutes ago

Partly Cloudy
Partly Cloudy
63.5 °F
Feels Like 63.5 °F
N
0.0
Wind Variable Wind from ESE

Today
High -- | Low -- °F
--% Chance of Precip.
Yesterday
High -- | Low -- °F
Precip. -- in
5:45 AM 8:36 PM
Waxing Gibbous, 72% visible
Pressure 30.06 in
Visibility 10.0 miles
Clouds Clear
Dew Point 60 °F
Humidity 87%
Rainfall 0.00 in
Snow Depth Not available.
UV 0 out of 12
Pollen 8.70 out of 12
Air Quality Not available.
Flu Activity Sporadic
METAR KOXV 280235Z AUTO 16004KT 10SM CLR 21/14 A3006 RMK AO2

More Conditions Fewer Conditions

Pressure 30.06 in
Visibility 10.0 miles
Clouds Clear
Dew Point 60 °F
Humidity 87%
Rainfall 0.00 in
Snow Depth Not available.
UV 0 out of 12
Pollen 8.70 out of 12
Air Quality Not available.
Flu Activity Sporadic
METAR KOXV 280235Z AUTO 16004KT 10SM CLR 21/14 A3006 RMK AO2

More Conditions Fewer Conditions

10-Day Weather Forecast

Almanac

Astronomy

May. 27, 2015 Rise Set
Actual Time
Civil Twilight
Nautical Twilight
Astronomical Twilight
Moon
Length of Visible Light
Length of Day
Tomorrow will be .
, % of the Moon is Illuminated

Today's Extremes

State Highs State Lows

Community

WunderPhotos

Upload Photos

1,824,873 photos uploaded!

WunderBlogs® & News

Nearby

Air Quality

  Air Quality AQ Index Pollutant
Not available.

Snow Depth

Station Depth Elevation

Earthquake Activity

City Distance Mag. Time & Date
Minimum magnitude displayed is 2.5.

Coastal Water Temperatures

Place Temperature

Stations

Nearby Weather Stations

Station Location Temp. Windchill Dew Point Humidity Wind Precip. Elev Updated Type